sensor_id;sensor_type;location;lat;lon;timestamp;pressure;altitude;pressure_sealevel;temperature;humidity
23616;BME280;11985;49.404;7.734;2023-07-22T00:00:41;97227.66;;;14.88;86.14
23616;BME280;11985;49.404;7.734;2023-07-22T00:05:43;97224.09;;;14.83;86.94
23616;BME280;11985;49.404;7.734;2023-07-22T00:10:44;97221.34;;;14.77;87.27
23616;BME280;11985;49.404;7.734;2023-07-22T00:15:47;97218.56;;;14.72;87.38
23616;BME280;11985;49.404;7.734;2023-07-22T00:20:50;97219.97;;;14.63;87.58
23616;BME280;11985;49.404;7.734;2023-07-22T00:25:52;97218.13;;;14.52;87.69
23616;BME280;11985;49.404;7.734;2023-07-22T00:30:55;97221.47;;;14.47;88.24
23616;BME280;11985;49.404;7.734;2023-07-22T00:35:57;97226.41;;;14.44;89.00
23616;BME280;11985;49.404;7.734;2023-07-22T00:40:59;97227.56;;;14.48;89.32
23616;BME280;11985;49.404;7.734;2023-07-22T00:46:02;97216.63;;;14.56;89.91
23616;BME280;11985;49.404;7.734;2023-07-22T00:51:04;97222.50;;;14.58;90.21
23616;BME280;11985;49.404;7.734;2023-07-22T00:56:05;97215.09;;;14.60;90.39
23616;BME280;11985;49.404;7.734;2023-07-22T01:01:08;97214.66;;;14.63;90.43
23616;BME280;11985;49.404;7.734;2023-07-22T01:06:10;97214.41;;;14.65;90.23
23616;BME280;11985;49.404;7.734;2023-07-22T01:11:13;97221.34;;;14.66;90.85
23616;BME280;11985;49.404;7.734;2023-07-22T01:16:16;97224.81;;;14.66;90.88
23616;BME280;11985;49.404;7.734;2023-07-22T01:21:19;97224.81;;;14.66;91.28
23616;BME280;11985;49.404;7.734;2023-07-22T01:26:22;97221.44;;;14.71;91.55
23616;BME280;11985;49.404;7.734;2023-07-22T01:31:24;97225.94;;;14.70;92.46
23616;BME280;11985;49.404;7.734;2023-07-22T01:36:25;97231.47;;;14.69;94.08
23616;BME280;11985;49.404;7.734;2023-07-22T01:41:28;97232.28;;;14.58;96.51
23616;BME280;11985;49.404;7.734;2023-07-22T01:46:30;97228.47;;;14.42;99.56
23616;BME280;11985;49.404;7.734;2023-07-22T01:51:31;97225.94;;;14.23;100.00
23616;BME280;11985;49.404;7.734;2023-07-22T01:56:34;97211.28;;;13.97;100.00
23616;BME280;11985;49.404;7.734;2023-07-22T02:01:36;97211.50;;;13.84;100.00
23616;BME280;11985;49.404;7.734;2023-07-22T02:06:38;97208.03;;;13.72;100.00
23616;BME280;11985;49.404;7.734;2023-07-22T02:11:41;97197.97;;;13.62;100.00
23616;BME280;11985;49.404;7.734;2023-07-22T02:16:43;97198.53;;;13.53;100.00
23616;BME280;11985;49.404;7.734;2023-07-22T02:21:45;97198.63;;;13.46;100.00
23616;BME280;11985;49.404;7.734;2023-07-22T02:26:48;97199.88;;;13.43;100.00
23616;BME280;11985;49.404;7.734;2023-07-22T02:31:50;97199.53;;;13.40;100.00
23616;BME280;11985;49.404;7.734;2023-07-22T02:36:51;97197.56;;;13.35;100.00
23616;BME280;11985;49.404;7.734;2023-07-22T02:41:55;97208.13;;;13.35;100.00
23616;BME280;11985;49.404;7.734;2023-07-22T02:46:56;97210.53;;;13.37;100.00
23616;BME280;11985;49.404;7.734;2023-07-22T02:51:58;97197.91;;;13.39;100.00
23616;BME280;11985;49.404;7.734;2023-07-22T02:57:01;97197.56;;;13.35;100.00
23616;BME280;11985;49.404;7.734;2023-07-22T03:02:03;97191.19;;;13.25;100.00
23616;BME280;11985;49.404;7.734;2023-07-22T03:07:05;97199.13;;;13.25;100.00
23616;BME280;11985;49.404;7.734;2023-07-22T03:12:09;97204.63;;;13.23;100.00
23616;BME280;11985;49.404;7.734;2023-07-22T03:17:10;97195.13;;;13.15;100.00
23616;BME280;11985;49.404;7.734;2023-07-22T03:22:14;97185.16;;;13.17;100.00
23616;BME280;11985;49.404;7.734;2023-07-22T03:27:17;97188.84;;;13.16;100.00
23616;BME280;11985;49.404;7.734;2023-07-22T03:32:19;97188.69;;;13.11;100.00
23616;BME280;11985;49.404;7.734;2023-07-22T03:37:20;97197.66;;;13.10;100.00
23616;BME280;11985;49.404;7.734;2023-07-22T03:42:23;97195.81;;;13.11;100.00
23616;BME280;11985;49.404;7.734;2023-07-22T03:47:25;97192.47;;;13.15;100.00
23616;BME280;11985;49.404;7.734;2023-07-22T03:52:26;97196.53;;;13.18;100.00
23616;BME280;11985;49.404;7.734;2023-07-22T03:57:29;97194.94;;;13.17;100.00
23616;BME280;11985;49.404;7.734;2023-07-22T04:02:31;97202.06;;;13.16;100.00
23616;BME280;11985;49.404;7.734;2023-07-22T04:07:33;97204.25;;;13.19;100.00
23616;BME280;11985;49.404;7.734;2023-07-22T04:12:36;97207.13;;;13.18;100.00
23616;BME280;11985;49.404;7.734;2023-07-22T04:17:38;97211.13;;;13.20;100.00
23616;BME280;11985;49.404;7.734;2023-07-22T04:22:41;97206.16;;;13.12;100.00
23616;BME280;11985;49.404;7.734;2023-07-22T04:27:43;97206.53;;;13.16;100.00
23616;BME280;11985;49.404;7.734;2023-07-22T04:32:46;97215.44;;;13.22;100.00
23616;BME280;11985;49.404;7.734;2023-07-22T04:37:48;97204.53;;;13.30;100.00
23616;BME280;11985;49.404;7.734;2023-07-22T04:42:51;97207.94;;;13.48;100.00
23616;BME280;11985;49.404;7.734;2023-07-22T04:47:52;97210.06;;;13.70;100.00
23616;BME280;11985;49.404;7.734;2023-07-22T04:52:55;97212.75;;;13.82;100.00
23616;BME280;11985;49.404;7.734;2023-07-22T04:57:57;97210.69;;;13.84;100.00
23616;BME280;11985;49.404;7.734;2023-07-22T05:02:59;97213.91;;;13.86;100.00
23616;BME280;11985;49.404;7.734;2023-07-22T05:08:01;97217.59;;;13.85;100.00
23616;BME280;11985;49.404;7.734;2023-07-22T05:13:04;97218.28;;;13.80;100.00
23616;BME280;11985;49.404;7.734;2023-07-22T05:18:06;97229.53;;;13.76;100.00
23616;BME280;11985;49.404;7.734;2023-07-22T05:23:07;97227.09;;;13.62;100.00
23616;BME280;11985;49.404;7.734;2023-07-22T05:28:10;97222.41;;;13.76;100.00
23616;BME280;11985;49.404;7.734;2023-07-22T05:33:12;97219.09;;;13.92;100.00
23616;BME280;11985;49.404;7.734;2023-07-22T05:38:13;97228.59;;;14.23;100.00
23616;BME280;11985;49.404;7.734;2023-07-22T05:43:16;97220.53;;;14.53;100.00
23616;BME280;11985;49.404;7.734;2023-07-22T05:48:18;97226.63;;;14.77;100.00
23616;BME280;11985;49.404;7.734;2023-07-22T05:53:21;97233.97;;;14.87;100.00
23616;BME280;11985;49.404;7.734;2023-07-22T05:58:24;97243.44;;;14.95;100.00
23616;BME280;11985;49.404;7.734;2023-07-22T06:03:26;97234.19;;;14.97;100.00
23616;BME280;11985;49.404;7.734;2023-07-22T06:08:28;97236.03;;;14.97;100.00
23616;BME280;11985;49.404;7.734;2023-07-22T06:13:31;97237.69;;;14.86;100.00
23616;BME280;11985;49.404;7.734;2023-07-22T06:18:32;97237.91;;;14.85;100.00
23616;BME280;11985;49.404;7.734;2023-07-22T06:23:34;97242.28;;;14.91;100.00
23616;BME280;11985;49.404;7.734;2023-07-22T06:28:37;97255.28;;;15.16;100.00
23616;BME280;11985;49.404;7.734;2023-07-22T06:33:39;97250.28;;;15.48;100.00
23616;BME280;11985;49.404;7.734;2023-07-22T06:38:40;97253.13;;;15.70;100.00
23616;BME280;11985;49.404;7.734;2023-07-22T06:43:43;97249.84;;;15.79;100.00
23616;BME280;11985;49.404;7.734;2023-07-22T06:48:45;97250.03;;;15.90;100.00
23616;BME280;11985;49.404;7.734;2023-07-22T06:53:46;97259.88;;;16.06;100.00
23616;BME280;11985;49.404;7.734;2023-07-22T06:58:49;97255.59;;;16.22;100.00
23616;BME280;11985;49.404;7.734;2023-07-22T07:03:51;97262.13;;;16.31;100.00
23616;BME280;11985;49.404;7.734;2023-07-22T07:08:53;97264.44;;;16.61;100.00
23616;BME280;11985;49.404;7.734;2023-07-22T07:13:56;97255.25;;;17.07;100.00
23616;BME280;11985;49.404;7.734;2023-07-22T07:18:59;97264.38;;;17.60;100.00
23616;BME280;11985;49.404;7.734;2023-07-22T07:24:01;97257.94;;;17.78;100.00
23616;BME280;11985;49.404;7.734;2023-07-22T07:29:04;97263.41;;;17.93;100.00
23616;BME280;11985;49.404;7.734;2023-07-22T07:34:06;97268.59;;;17.78;100.00
23616;BME280;11985;49.404;7.734;2023-07-22T07:39:07;97267.09;;;17.92;100.00
23616;BME280;11985;49.404;7.734;2023-07-22T07:44:10;97268.97;;;18.56;100.00
23616;BME280;11985;49.404;7.734;2023-07-22T07:49:12;97269.63;;;19.26;100.00
23616;BME280;11985;49.404;7.734;2023-07-22T07:54:14;97267.03;;;19.46;100.00
23616;BME280;11985;49.404;7.734;2023-07-22T07:59:17;97274.78;;;19.48;95.98
23616;BME280;11985;49.404;7.734;2023-07-22T08:04:19;97270.38;;;19.79;92.62
23616;BME280;11985;49.404;7.734;2023-07-22T08:09:20;97269.84;;;19.87;89.29
23616;BME280;11985;49.404;7.734;2023-07-22T08:14:23;97275.75;;;19.94;87.16
23616;BME280;11985;49.404;7.734;2023-07-22T08:19:25;97274.69;;;20.00;87.28
23616;BME280;11985;49.404;7.734;2023-07-22T08:24:27;97282.69;;;20.26;85.49
23616;BME280;11985;49.404;7.734;2023-07-22T08:29:30;97277.91;;;20.33;82.58
23616;BME280;11985;49.404;7.734;2023-07-22T08:34:31;97280.28;;;20.09;80.62
23616;BME280;11985;49.404;7.734;2023-07-22T08:39:33;97282.94;;;20.04;79.57
23616;BME280;11985;49.404;7.734;2023-07-22T08:44:38;97289.66;;;20.07;77.91
23616;BME280;11985;49.404;7.734;2023-07-22T08:49:45;97283.78;;;20.25;75.50
23616;BME280;11985;49.404;7.734;2023-07-22T08:54:49;97279.50;;;20.19;73.79
23616;BME280;11985;49.404;7.734;2023-07-22T08:59:52;97278.47;;;20.61;73.58
23616;BME280;11985;49.404;7.734;2023-07-22T09:04:55;97267.19;;;20.79;71.07
23616;BME280;11985;49.404;7.734;2023-07-22T09:09:58;97269.88;;;20.74;69.31
23616;BME280;11985;49.404;7.734;2023-07-22T09:15:02;97269.84;;;20.79;67.07
23616;BME280;11985;49.404;7.734;2023-07-22T09:20:05;97264.19;;;20.96;66.13
23616;BME280;11985;49.404;7.734;2023-07-22T09:25:12;97260.72;;;21.00;63.96
23616;BME280;11985;49.404;7.734;2023-07-22T09:30:22;97266.59;;;21.02;63.50
23616;BME280;11985;49.404;7.734;2023-07-22T09:35:27;97263.28;;;21.36;61.96
23616;BME280;11985;49.404;7.734;2023-07-22T09:40:30;97264.78;;;21.57;61.99
23616;BME280;11985;49.404;7.734;2023-07-22T09:45:33;97259.78;;;21.85;61.23
23616;BME280;11985;49.404;7.734;2023-07-22T09:50:36;97257.84;;;21.51;59.92
23616;BME280;11985;49.404;7.734;2023-07-22T09:55:37;97252.03;;;21.29;59.42
23616;BME280;11985;49.404;7.734;2023-07-22T10:00:45;97251.06;;;20.99;59.58
23616;BME280;11985;49.404;7.734;2023-07-22T10:05:50;97259.69;;;20.81;58.51
23616;BME280;11985;49.404;7.734;2023-07-22T10:10:54;97253.03;;;20.68;57.84
23616;BME280;11985;49.404;7.734;2023-07-22T10:15:59;97259.84;;;21.15;57.04
23616;BME280;11985;49.404;7.734;2023-07-22T10:21:02;97247.28;;;21.70;56.82
23616;BME280;11985;49.404;7.734;2023-07-22T10:26:04;97237.88;;;22.46;55.87
23616;BME280;11985;49.404;7.734;2023-07-22T10:31:08;97242.75;;;22.44;54.49
23616;BME280;11985;49.404;7.734;2023-07-22T10:36:14;97230.47;;;22.91;53.82
23616;BME280;11985;49.404;7.734;2023-07-22T10:41:16;97238.75;;;23.18;51.45
23616;BME280;11985;49.404;7.734;2023-07-22T10:46:31;97231.63;;;22.56;50.57
23616;BME280;11985;49.404;7.734;2023-07-22T10:51:35;97227.19;;;22.12;49.35
23616;BME280;11985;49.404;7.734;2023-07-22T10:56:37;97228.69;;;21.45;49.25
23616;BME280;11985;49.404;7.734;2023-07-22T11:01:43;97230.97;;;21.02;49.70
23616;BME280;11985;49.404;7.734;2023-07-22T11:06:53;97234.44;;;21.02;50.28
23616;BME280;11985;49.404;7.734;2023-07-22T11:11:57;97236.06;;;20.98;50.99
23616;BME280;11985;49.404;7.734;2023-07-22T11:17:01;97227.22;;;20.98;50.33
23616;BME280;11985;49.404;7.734;2023-07-22T11:22:05;97211.44;;;21.01;51.08
23616;BME280;11985;49.404;7.734;2023-07-22T11:27:07;97218.72;;;21.50;51.08
23616;BME280;11985;49.404;7.734;2023-07-22T11:32:16;97221.41;;;21.50;51.10
23616;BME280;11985;49.404;7.734;2023-07-22T11:37:18;97222.53;;;21.44;51.07
23616;BME280;11985;49.404;7.734;2023-07-22T11:42:20;97200.28;;;21.44;51.15
23616;BME280;11985;49.404;7.734;2023-07-22T11:47:28;97199.06;;;22.04;50.75
23616;BME280;11985;49.404;7.734;2023-07-22T11:52:32;97197.22;;;22.00;49.85
23616;BME280;11985;49.404;7.734;2023-07-22T11:57:34;97187.47;;;22.14;50.17
23616;BME280;11985;49.404;7.734;2023-07-22T12:02:37;97199.16;;;22.28;48.71
23616;BME280;11985;49.404;7.734;2023-07-22T12:07:39;97179.03;;;22.26;48.18
23616;BME280;11985;49.404;7.734;2023-07-22T12:12:43;97184.97;;;22.23;48.09
23616;BME280;11985;49.404;7.734;2023-07-22T12:17:48;97194.06;;;22.27;48.02
23616;BME280;11985;49.404;7.734;2023-07-22T12:22:50;97181.38;;;22.61;47.98
23616;BME280;11985;49.404;7.734;2023-07-22T12:27:51;97164.97;;;22.87;47.64
23616;BME280;11985;49.404;7.734;2023-07-22T12:32:54;97164.69;;;23.12;47.19
23616;BME280;11985;49.404;7.734;2023-07-22T12:37:56;97174.75;;;22.78;46.36
23616;BME280;11985;49.404;7.734;2023-07-22T12:42:58;97176.41;;;22.21;45.80
23616;BME280;11985;49.404;7.734;2023-07-22T12:48:01;97177.53;;;22.14;46.08
23616;BME280;11985;49.404;7.734;2023-07-22T12:53:05;97167.09;;;22.66;45.88
23616;BME280;11985;49.404;7.734;2023-07-22T12:58:07;97163.38;;;22.86;45.01
23616;BME280;11985;49.404;7.734;2023-07-22T13:03:10;97152.69;;;22.81;44.82
23616;BME280;11985;49.404;7.734;2023-07-22T13:08:12;97161.50;;;22.38;44.61
23616;BME280;11985;49.404;7.734;2023-07-22T13:13:14;97155.53;;;22.42;45.16
23616;BME280;11985;49.404;7.734;2023-07-22T13:18:17;97147.81;;;22.88;45.44
23616;BME280;11985;49.404;7.734;2023-07-22T13:23:18;97151.91;;;23.04;44.82
23616;BME280;11985;49.404;7.734;2023-07-22T13:28:20;97145.81;;;23.17;44.80
23616;BME280;11985;49.404;7.734;2023-07-22T13:33:23;97152.03;;;23.32;44.27
23616;BME280;11985;49.404;7.734;2023-07-22T13:38:25;97145.44;;;23.62;43.75
23616;BME280;11985;49.404;7.734;2023-07-22T13:43:27;97147.00;;;23.49;43.35
23616;BME280;11985;49.404;7.734;2023-07-22T13:48:31;97142.81;;;23.57;42.86
23616;BME280;11985;49.404;7.734;2023-07-22T13:53:33;97136.00;;;23.83;42.91
23616;BME280;11985;49.404;7.734;2023-07-22T13:58:34;97139.41;;;23.89;42.03
23616;BME280;11985;49.404;7.734;2023-07-22T14:03:38;97130.34;;;23.66;41.72
23616;BME280;11985;49.404;7.734;2023-07-22T14:08:39;97127.84;;;23.32;41.71
23616;BME280;11985;49.404;7.734;2023-07-22T14:13:42;97127.16;;;23.45;41.71
23616;BME280;11985;49.404;7.734;2023-07-22T14:18:45;97117.72;;;23.99;41.80
23616;BME280;11985;49.404;7.734;2023-07-22T14:23:47;97110.44;;;24.13;40.80
23616;BME280;11985;49.404;7.734;2023-07-22T14:28:48;97101.97;;;24.06;40.56
23616;BME280;11985;49.404;7.734;2023-07-22T14:33:52;97113.34;;;24.31;40.28
23616;BME280;11985;49.404;7.734;2023-07-22T14:38:54;97099.25;;;24.66;40.11
23616;BME280;11985;49.404;7.734;2023-07-22T14:43:56;97109.41;;;24.83;39.60
23616;BME280;11985;49.404;7.734;2023-07-22T14:48:59;97105.75;;;24.65;38.98
23616;BME280;11985;49.404;7.734;2023-07-22T14:54:00;97105.59;;;24.29;38.95
23616;BME280;11985;49.404;7.734;2023-07-22T14:59:02;97096.81;;;24.23;39.23
23616;BME280;11985;49.404;7.734;2023-07-22T15:04:05;97093.25;;;24.42;39.30
23616;BME280;11985;49.404;7.734;2023-07-22T15:09:07;97084.59;;;25.22;38.95
23616;BME280;11985;49.404;7.734;2023-07-22T15:14:09;97103.88;;;25.74;38.31
23616;BME280;11985;49.404;7.734;2023-07-22T15:19:12;97083.16;;;25.61;37.49
23616;BME280;11985;49.404;7.734;2023-07-22T15:24:14;97081.56;;;25.38;37.13
23616;BME280;11985;49.404;7.734;2023-07-22T15:29:15;97091.81;;;24.86;36.93
23616;BME280;11985;49.404;7.734;2023-07-22T15:34:18;97084.56;;;24.72;37.22
23616;BME280;11985;49.404;7.734;2023-07-22T15:39:20;97082.16;;;24.85;37.14
23616;BME280;11985;49.404;7.734;2023-07-22T15:44:21;97081.28;;;24.48;37.21
23616;BME280;11985;49.404;7.734;2023-07-22T15:49:28;97072.25;;;25.08;37.07
23616;BME280;11985;49.404;7.734;2023-07-22T15:54:30;97083.44;;;25.01;36.61
23616;BME280;11985;49.404;7.734;2023-07-22T15:59:31;97074.59;;;24.73;36.19
23616;BME280;11985;49.404;7.734;2023-07-22T16:04:34;97073.94;;;24.40;36.49
23616;BME280;11985;49.404;7.734;2023-07-22T16:09:36;97072.91;;;24.63;36.46
23616;BME280;11985;49.404;7.734;2023-07-22T16:14:37;97061.38;;;24.49;36.56
23616;BME280;11985;49.404;7.734;2023-07-22T16:19:40;97061.13;;;24.18;36.50
23616;BME280;11985;49.404;7.734;2023-07-22T16:24:42;97054.78;;;24.55;37.16
23616;BME280;11985;49.404;7.734;2023-07-22T16:29:44;97057.97;;;24.57;36.89
23616;BME280;11985;49.404;7.734;2023-07-22T16:34:47;97061.00;;;24.09;36.67
23616;BME280;11985;49.404;7.734;2023-07-22T16:39:48;97052.81;;;23.87;37.15
23616;BME280;11985;49.404;7.734;2023-07-22T16:44:53;97059.22;;;24.05;37.15
23616;BME280;11985;49.404;7.734;2023-07-22T16:49:56;97046.72;;;23.81;37.07
23616;BME280;11985;49.404;7.734;2023-07-22T16:54:58;97044.34;;;23.80;37.20
23616;BME280;11985;49.404;7.734;2023-07-22T17:00:00;97030.53;;;24.41;37.47
23616;BME280;11985;49.404;7.734;2023-07-22T17:05:03;97037.75;;;25.10;37.05
23616;BME280;11985;49.404;7.734;2023-07-22T17:10:06;97041.69;;;24.98;36.39
23616;BME280;11985;49.404;7.734;2023-07-22T17:15:08;97044.19;;;24.72;36.19
23616;BME280;11985;49.404;7.734;2023-07-22T17:20:12;97038.56;;;24.83;36.13
23616;BME280;11985;49.404;7.734;2023-07-22T17:25:14;97033.75;;;24.43;36.20
23616;BME280;11985;49.404;7.734;2023-07-22T17:30:17;97019.69;;;24.05;36.47
23616;BME280;11985;49.404;7.734;2023-07-22T17:35:20;97027.66;;;23.64;36.95
23616;BME280;11985;49.404;7.734;2023-07-22T17:40:22;97026.69;;;23.41;37.25
23616;BME280;11985;49.404;7.734;2023-07-22T17:45:25;97013.50;;;23.26;37.78
23616;BME280;11985;49.404;7.734;2023-07-22T17:50:29;97018.19;;;23.01;38.17
23616;BME280;11985;49.404;7.734;2023-07-22T17:55:30;97012.56;;;22.79;38.23
23616;BME280;11985;49.404;7.734;2023-07-22T18:00:32;97010.28;;;22.48;38.81
23616;BME280;11985;49.404;7.734;2023-07-22T18:05:35;97008.13;;;22.26;39.53
23616;BME280;11985;49.404;7.734;2023-07-22T18:10:37;97003.00;;;22.06;39.96
23616;BME280;11985;49.404;7.734;2023-07-22T18:15:38;97006.34;;;21.93;40.47
23616;BME280;11985;49.404;7.734;2023-07-22T18:20:41;97002.59;;;21.94;40.70
23616;BME280;11985;49.404;7.734;2023-07-22T18:25:43;97001.28;;;21.91;41.53
23616;BME280;11985;49.404;7.734;2023-07-22T18:30:45;97006.63;;;21.91;41.82
23616;BME280;11985;49.404;7.734;2023-07-22T18:35:49;97002.06;;;21.92;42.09
23616;BME280;11985;49.404;7.734;2023-07-22T18:40:51;97002.88;;;21.92;42.06
23616;BME280;11985;49.404;7.734;2023-07-22T18:45:53;97008.47;;;21.96;42.99
23616;BME280;11985;49.404;7.734;2023-07-22T18:50:56;97015.31;;;21.83;44.11
23616;BME280;11985;49.404;7.734;2023-07-22T18:55:58;97020.16;;;21.52;45.18
23616;BME280;11985;49.404;7.734;2023-07-22T19:00:59;97024.16;;;21.15;45.80
23616;BME280;11985;49.404;7.734;2023-07-22T19:06:02;97015.06;;;20.77;46.85
23616;BME280;11985;49.404;7.734;2023-07-22T19:11:04;97024.31;;;20.40;48.15
23616;BME280;11985;49.404;7.734;2023-07-22T19:16:08;97025.50;;;20.09;49.00
23616;BME280;11985;49.404;7.734;2023-07-22T19:21:11;97026.13;;;19.75;49.88
23616;BME280;11985;49.404;7.734;2023-07-22T19:26:13;97027.19;;;19.48;50.83
23616;BME280;11985;49.404;7.734;2023-07-22T19:31:14;97040.81;;;19.26;51.58
23616;BME280;11985;49.404;7.734;2023-07-22T19:36:18;97039.22;;;19.05;52.47
23616;BME280;11985;49.404;7.734;2023-07-22T19:41:19;97043.69;;;18.84;53.26
23616;BME280;11985;49.404;7.734;2023-07-22T19:46:21;97041.00;;;18.69;54.11
23616;BME280;11985;49.404;7.734;2023-07-22T19:51:24;97043.06;;;18.57;54.68
23616;BME280;11985;49.404;7.734;2023-07-22T19:56:26;97055.28;;;18.47;55.43
23616;BME280;11985;49.404;7.734;2023-07-22T20:01:28;97051.78;;;18.37;55.85
23616;BME280;11985;49.404;7.734;2023-07-22T20:06:30;97049.88;;;18.27;56.63
23616;BME280;11985;49.404;7.734;2023-07-22T20:11:32;97044.81;;;18.31;57.13
23616;BME280;11985;49.404;7.734;2023-07-22T20:16:34;97049.91;;;18.37;57.57
23616;BME280;11985;49.404;7.734;2023-07-22T20:21:37;97051.78;;;18.37;57.89
23616;BME280;11985;49.404;7.734;2023-07-22T20:26:38;97046.44;;;18.27;58.44
23616;BME280;11985;49.404;7.734;2023-07-22T20:31:40;97054.88;;;18.13;59.26
23616;BME280;11985;49.404;7.734;2023-07-22T20:36:43;97049.19;;;17.94;59.85
23616;BME280;11985;49.404;7.734;2023-07-22T20:41:44;97054.91;;;17.76;60.42
23616;BME280;11985;49.404;7.734;2023-07-22T20:46:46;97051.13;;;17.67;61.02
23616;BME280;11985;49.404;7.734;2023-07-22T20:51:49;97050.00;;;17.63;61.86
23616;BME280;11985;49.404;7.734;2023-07-22T20:56:50;97041.97;;;17.58;62.48
23616;BME280;11985;49.404;7.734;2023-07-22T21:01:52;97039.00;;;17.49;63.05
23616;BME280;11985;49.404;7.734;2023-07-22T21:06:55;97038.66;;;17.40;63.66
23616;BME280;11985;49.404;7.734;2023-07-22T21:11:57;97049.78;;;17.32;64.24
23616;BME280;11985;49.404;7.734;2023-07-22T21:16:58;97044.66;;;17.26;64.83
23616;BME280;11985;49.404;7.734;2023-07-22T21:22:01;97043.28;;;17.18;65.39
23616;BME280;11985;49.404;7.734;2023-07-22T21:27:04;97047.00;;;17.17;66.03
23616;BME280;11985;49.404;7.734;2023-07-22T21:32:06;97048.00;;;17.11;66.96
23616;BME280;11985;49.404;7.734;2023-07-22T21:37:09;97051.09;;;17.03;67.29
23616;BME280;11985;49.404;7.734;2023-07-22T21:42:11;97045.47;;;16.94;67.75
23616;BME280;11985;49.404;7.734;2023-07-22T21:47:13;97047.75;;;16.85;68.38
23616;BME280;11985;49.404;7.734;2023-07-22T21:52:16;97045.16;;;16.69;69.15
23616;BME280;11985;49.404;7.734;2023-07-22T21:57:17;97042.69;;;16.62;69.84
23616;BME280;11985;49.404;7.734;2023-07-22T22:02:19;97052.16;;;16.53;70.71
23616;BME280;11985;49.404;7.734;2023-07-22T22:07:22;97044.13;;;16.48;71.29
23616;BME280;11985;49.404;7.734;2023-07-22T22:12:23;97050.69;;;16.40;72.44
23616;BME280;11985;49.404;7.734;2023-07-22T22:17:25;97048.22;;;16.33;73.25
23616;BME280;11985;49.404;7.734;2023-07-22T22:22:28;97048.09;;;16.23;74.11
23616;BME280;11985;49.404;7.734;2023-07-22T22:27:29;97042.63;;;16.13;74.87
23616;BME280;11985;49.404;7.734;2023-07-22T22:32:31;97050.97;;;16.00;75.33
23616;BME280;11985;49.404;7.734;2023-07-22T22:37:34;97050.25;;;15.88;76.20
23616;BME280;11985;49.404;7.734;2023-07-22T22:42:36;97044.25;;;15.75;77.20
23616;BME280;11985;49.404;7.734;2023-07-22T22:47:37;97051.50;;;15.63;77.66
23616;BME280;11985;49.404;7.734;2023-07-22T22:52:40;97052.38;;;15.52;78.59
23616;BME280;11985;49.404;7.734;2023-07-22T22:57:42;97041.59;;;15.42;79.73
23616;BME280;11985;49.404;7.734;2023-07-22T23:02:44;97044.66;;;15.34;80.55
23616;BME280;11985;49.404;7.734;2023-07-22T23:07:48;97036.28;;;15.25;81.43
23616;BME280;11985;49.404;7.734;2023-07-22T23:12:50;97040.16;;;15.17;82.43
23616;BME280;11985;49.404;7.734;2023-07-22T23:17:51;97044.22;;;15.08;83.32
23616;BME280;11985;49.404;7.734;2023-07-22T23:22:54;97030.78;;;14.98;83.85
23616;BME280;11985;49.404;7.734;2023-07-22T23:27:56;97026.13;;;14.88;84.36
23616;BME280;11985;49.404;7.734;2023-07-22T23:32:57;97027.06;;;14.82;84.96
23616;BME280;11985;49.404;7.734;2023-07-22T23:38:00;97018.72;;;14.73;85.44
23616;BME280;11985;49.404;7.734;2023-07-22T23:43:02;97023.81;;;14.63;86.17
23616;BME280;11985;49.404;7.734;2023-07-22T23:48:04;97017.53;;;14.52;87.04
23616;BME280;11985;49.404;7.734;2023-07-22T23:53:07;97013.59;;;14.43;87.49
23616;BME280;11985;49.404;7.734;2023-07-22T23:58:09;97008.94;;;14.34;88.29
